Preston, Canada
Current Conditions -  °F | °C
As of 1:00 PM on Wednesday 28 Jan 2015 (Local Time) from CYKF Reporting Station
Clear Clear  
Wind Chill: 23°   Ceiling: Unl
Heat Index: 23°   Visibility: 9mi
Dew Point:   Wind: 2mph
Humidity: 43%   Direction: NA
Pressure: 30.26"   Gusts: NA
Location:  43.4°N, 80.35°W
Report Text: CYKF 281800Z AUTO VRB02KT 9SM CLR M05/M16 A3026 RMK SLP268
Loading
Personal Weather Stations






























Interactive Weather Map New forecast layout! Learn more

10-Day Weather Forecast

Advertisements
Track Severe Weather on mobile